Flight Track Log - Related Links

Times and Time Zones

All times are in EDT time to prevent confusion due to time zone crossing. See the SKW5456 flight status page for this flight to view local times or setup timezone preferences in your user account.

Time Position Orientation Groundspeed Altitude Reporting Facility
EDT Latitude Longitude Course Direction KTS MPH feet Rate Location/Type
Mon 10:39:15 AM 39.8348 -104.6616 263° West  Level FlightAware Approximate
Mon 10:40:15 AM 39.7877 -104.7964 272° West  Level FlightAware Approximate
Mon 10:41:15 AM 39.7780 -104.9434 279° West  Level FlightAware Approximate
Mon 10:42:15 AM 39.7496 -105.0866 North  Level FlightAware Approximate
Mon 10:43:06 AM 39.7939 -105.0786 258° West 326 375 14,500  Level Denver Center
Mon 10:44:06 AM 39.7744 -105.2008 259° West 337 388 16,700 1,700 Climbing Denver Center
Mon 10:45:06 AM 39.7547 -105.3281 255° West 337 388 17,900 1,500 Climbing Denver Center
Mon 10:46:06 AM 39.7308 -105.4472 257° West 337 388 19,700 1,800 Climbing Denver Center
Mon 10:47:06 AM 39.7089 -105.5717 255° West 345 397 21,500 1,500 Climbing Denver Center
Mon 10:48:06 AM 39.6828 -105.6989 255° West 355 409 22,700 1,550 Climbing Denver Center
Mon 10:49:06 AM 39.6564 -105.8286 254° West 368 423 24,600 1,700 Climbing Denver Center
Mon 10:50:06 AM 39.6281 -105.9583 257° West 374 430 26,100 1,400 Climbing Denver Center
Mon 10:51:06 AM 39.6033 -106.0933 258° West 380 437 27,400 950 Climbing Denver Center
Mon 10:52:06 AM 39.5831 -106.2144 255° West 380 437 28,000 750 Climbing Denver Center
Mon 10:53:06 AM 39.5539 -106.3575 255° West 396 456 28,900 950 Climbing Denver Center
Mon 10:54:06 AM 39.5247 -106.4947 253° West 396 456 29,900 1,000 Climbing Denver Center
Mon 10:55:06 AM 39.4892 -106.6456 255° West 401 461 30,900 950 Climbing Denver Center
Mon 10:56:06 AM 39.4619 -106.7744 251° West 401 461 31,800 1,000 Climbing Denver Center
Mon 10:57:06 AM 39.4258 -106.9114 234° Southwest 406 467 32,900 1,150 Climbing Denver Center
Mon 10:58:06 AM 39.3525 -107.0425 231° Southwest 406 467 34,100 950 Climbing Denver Center
Mon 10:59:06 AM 39.2808 -107.1572 233° Southwest 419 482 34,800 655 Climbing Denver Center
Mon 11:00:05 AM 39.2178 -107.2639 237° Southwest 419 482 35,400 605 Climbing Denver Center
Mon 11:01:05 AM 39.1561 -107.3864 237° Southwest 419 482 36,000 298 Climbing Denver Center
Mon 11:02:06 AM 39.0861 -107.5244 237° Southwest 419 482 36,000  Level Denver Center
Mon 11:03:06 AM 39.0247 -107.6464 236° Southwest 419 482 36,000  Level Denver Center
Mon 11:04:05 AM 38.9606 -107.7708 236° Southwest 419 482 36,000  Level Denver Center
Mon 11:05:05 AM 38.9008 -107.8844 236° Southwest 424 488 36,000  Level Denver Center
Mon 11:06:05 AM 38.8283 -108.0242 236° Southwest 430 495 36,000 300 Level Denver Center
Mon 11:07:05 AM 38.7619 -108.1506 236° Southwest 430 495 36,600 545 Climbing Denver Center
Mon 11:08:06 AM 38.6953 -108.2767 237° Southwest 436 502 37,100 496 Climbing Denver Center
Mon 11:09:06 AM 38.6372 -108.3894 237° Southwest 436 502 37,600 454 Climbing Denver Center
Mon 11:10:05 AM 38.5658 -108.5283 237° Southwest 436 502 38,000 200 Climbing Denver Center
Mon 11:11:06 AM 38.5008 -108.6564 235° Southwest 436 502 38,000  Level Denver Center
Mon 11:12:06 AM 38.4317 -108.7814 236° Southwest 436 502 38,000  Level Denver Center
Mon 11:13:06 AM 38.3731 -108.8933 235° Southwest 436 502 38,000  Level Denver Center
Mon 11:14:06 AM 38.3036 -109.0206 236° Southwest 436 502 38,000  Level Denver Center
Mon 11:15:06 AM 38.2294 -109.1606 235° Southwest 436 502 38,000  Level Denver Center
Mon 11:16:06 AM 38.1619 -109.2847 236° Southwest 436 502 38,000  Level Denver Center
Mon 11:17:06 AM 38.1006 -109.4011 237° Southwest 436 502 38,000  Level Denver Center
Mon 11:18:06 AM 38.0258 -109.5456 235° Southwest 442 509 38,000  Level Denver Center
Mon 11:19:05 AM 37.9644 -109.6586 236° Southwest 447 514 38,000  Level Denver Center
Mon 11:20:05 AM 37.8939 -109.7922 235° Southwest 447 514 38,000  Level Denver Center
Mon 11:21:06 AM 37.8144 -109.9358 234° Southwest 455 524 38,000  Level Denver Center
Mon 11:22:06 AM 37.7439 -110.0583 235° Southwest 450 518 38,000  Level Denver Center
Mon 11:23:06 AM 37.6778 -110.1758 236° Southwest 456 525 38,000  Level Denver Center
Mon 11:24:06 AM 37.6000 -110.3211 234° Southwest 461 531 38,000  Level Denver Center
Mon 11:25:06 AM 37.5267 -110.4506 231° Southwest 461 531 38,000  Level Denver Center
Mon 11:26:06 AM 37.4539 -110.5642 234° Southwest 461 531 38,000  Level Denver Center
Mon 11:27:06 AM 37.3803 -110.6933 235° Southwest 461 531 38,000  Level Denver Center
Mon 11:28:06 AM 37.3064 -110.8247 236° Southwest 467 537 38,000  Level Denver Center
Mon 11:29:06 AM 37.2347 -110.9561 235° Southwest 462 532 38,000  Level Denver Center
Mon 11:30:06 AM 37.1606 -111.0867 235° Southwest 462 532 38,000  Level Denver Center
Mon 11:31:54 AM 37.0214 -111.3367 233° Southwest 463 533 38,000  Level Los Angeles Center
Mon 11:32:54 AM 36.9431 -111.4689 233° Southwest 468 539 38,000  Level Los Angeles Center
Mon 11:33:54 AM 36.8664 -111.5981 235° Southwest 468 539 38,000  Level Los Angeles Center
Mon 11:34:54 AM 36.7919 -111.7292 234° Southwest 468 539 38,000  Level Los Angeles Center
Mon 11:35:54 AM 36.7175 -111.8578 235° Southwest 468 539 38,000  Level Los Angeles Center
Mon 11:36:54 AM 36.6525 -111.9750 233° Southwest 468 539 38,000  Level Los Angeles Center
Mon 11:37:54 AM 36.5756 -112.1033 234° Southwest 468 539 38,000  Level Los Angeles Center
Mon 11:38:54 AM 36.4983 -112.2336 234° Southwest 468 539 38,000  Level Los Angeles Center
Mon 11:39:54 AM 36.4231 -112.3614 234° Southwest 468 539 38,000  Level Los Angeles Center
Mon 11:40:54 AM 36.3458 -112.4914 234° Southwest 468 539 38,000  Level Los Angeles Center
Mon 11:41:54 AM 36.2622 -112.6314 234° Southwest 468 539 38,000  Level Los Angeles Center
Mon 11:42:54 AM 36.1867 -112.7608 234° Southwest 468 539 38,000  Level Los Angeles Center
Mon 11:43:54 AM 36.1108 -112.8900 233° Southwest 468 539 38,000  Level Los Angeles Center
Mon 11:44:54 AM 36.0328 -113.0192 233° Southwest 468 539 38,000  Level Los Angeles Center
Mon 11:45:54 AM 35.9728 -113.1189 233° Southwest 468 539 38,000  Level Los Angeles Center
Mon 11:46:54 AM 35.8864 -113.2606 234° Southwest 468 539 38,000  Level Los Angeles Center
Mon 11:47:54 AM 35.8100 -113.3886 232° Southwest 468 539 38,000  Level Los Angeles Center
Mon 11:48:54 AM 35.7314 -113.5142 233° Southwest 468 539 38,000  Level Los Angeles Center
Mon 11:49:54 AM 35.6547 -113.6392 234° Southwest 468 539 38,000  Level Los Angeles Center
Mon 11:50:54 AM 35.5781 -113.7667 232° Southwest 468 539 38,000  Level Los Angeles Center
Mon 11:51:54 AM 35.4989 -113.8889 233° Southwest 468 539 38,000  Level Los Angeles Center
Mon 11:54:54 AM 35.2694 -114.2589 232° Southwest 462 532 38,000  Level Los Angeles Center
Mon 11:55:54 AM 35.1878 -114.3853 232° Southwest 467 537 38,000  Level Los Angeles Center
Mon 11:56:54 AM 35.1100 -114.5089 232° Southwest 467 537 38,000  Level Los Angeles Center
Mon 11:57:54 AM 35.0303 -114.6347 232° Southwest 467 537 38,000  Level Los Angeles Center
Mon 11:58:54 AM 34.9525 -114.7578 232° Southwest 467 537 38,000  Level Los Angeles Center
Mon 11:59:54 AM 34.8744 -114.8806 232° Southwest 467 537 38,000  Level Los Angeles Center
Mon 12:00:54 PM 34.7964 -115.0031 227° Southwest 467 537 38,000  Level Los Angeles Center
Mon 12:01:54 PM 34.7097 -115.1156 220° Southwest 467 537 38,000  Level Los Angeles Center
Mon 12:02:54 PM 34.6144 -115.2125 217° Southwest 454 522 38,000  Level Los Angeles Center
Mon 12:03:54 PM 34.5150 -115.3044 219° Southwest 454 522 38,000  Level Los Angeles Center
Mon 12:04:54 PM 34.4175 -115.3986 220° Southwest 459 528 38,000 -200 Level Los Angeles Center
Mon 12:05:54 PM 34.3219 -115.4950 236° Southwest 454 522 37,600 -1,250 Descending Los Angeles Center
Mon 12:06:54 PM 34.2517 -115.6211 241° Southwest 444 511 35,500 -2,050 Descending Los Angeles Center
Mon 12:07:54 PM 34.1914 -115.7519 241° Southwest 449 517 33,500 -2,000 Descending Los Angeles Center
Mon 12:08:54 PM 34.1314 -115.8853 240° Southwest 449 517 31,500 -2,000 Descending Los Angeles Center
Mon 12:09:54 PM 34.0689 -116.0133 241° Southwest 454 522 29,500 -2,000 Descending Los Angeles Center
Mon 12:10:54 PM 34.0083 -116.1439 239° Southwest 454 522 27,500 -1,950 Descending Los Angeles Center
Mon 12:11:54 PM 33.9394 -116.2839 241° Southwest 449 517 25,600 -1,750 Descending Los Angeles Center
Mon 12:12:54 PM 33.8786 -116.4164 269° West 449 517 24,000 -2,100 Descending Los Angeles Center
Mon 12:13:54 PM 33.8761 -116.5592 277° West 420 483 21,400 -2,800 Descending Los Angeles Center
Mon 12:14:54 PM 33.8881 -116.6817 272° West 412 474 18,400 -3,200 Descending Los Angeles Center
Mon 12:15:54 PM 33.8917 -116.8069 256° West 398 458 15,000 -2,200 Descending Los Angeles Center
Mon 12:16:54 PM 33.8681 -116.9217 256° West 375 432 14,000 -900 Descending Los Angeles Center
Mon 12:17:54 PM 33.8422 -117.0417 262° West 355 409 13,200 -800 Descending Los Angeles Center
Mon 12:18:54 PM 33.8286 -117.1514 264° West 349 402 12,400 -950 Descending Los Angeles Center
Mon 12:19:54 PM 33.8194 -117.2514 262° West 330 380 11,300 -1,350 Descending Los Angeles Center
Mon 12:20:54 PM 33.8081 -117.3486 263° West 316 364 9,700 -1,300 Descending Los Angeles Center
Mon 12:21:54 PM 33.7989 -117.4386 264° West 293 337 8,700 -900 Descending Los Angeles Center
Mon 12:22:54 PM 33.7917 -117.5208 262° West 271 312 7,900 -793 Descending Los Angeles Center
Mon 12:23:55 PM 33.7822 -117.5983 287° West 257 296 7,100 -931 Descending Los Angeles Center
Mon 12:24:50 PM 33.8000 -117.6667 309° West 214 246 6,100 -1,304 Descending Southern California TRACON
Mon 12:25:50 PM 33.8333 -117.7167 253° West 220 253 4,600 -1,550 Descending Southern California TRACON
Mon 12:26:50 PM 33.8167 -117.7833 195° South 205 236 3,000 -1,240 Descending Southern California TRACON
Mon 12:27:51 PM 33.7667 -117.8000 220° Southwest 152 175 2,100 -793 Descending Southern California TRACON
Mon 12:28:51 PM 33.7333 -117.8333 203° Southwest 134 154 1,400 -700 Descending Southern California TRACON
Mon 12:29:51 PM 33.7000 -117.8500 203° Southwest 134 154 700 -700 Descending Southern California TRACON

Login

Don't have an account? Register now (free) for customized features, flight alerts, and more!